This is the latest recevied weather packets stored in our database for station/object EA7RX-4. If no packets are shown the sender has not sent any weather packets the latest 1 day(s).
| Time | Temp. | Humidity | Pressure | Rain* | Wind** | Luminosity | Snow |
|---|---|---|---|---|---|---|---|
| 1777965603 | 11.11° C | 62% | 1011.3 hPa | 0 mm | 0.89 m/s, 52° | 341 W/m² | - |
| 1777965003 | 10° C | 69% | 1011.3 hPa | 0 mm | 0.89 m/s, 332° | 297 W/m² | - |
| 1777964403 | 10° C | 68% | 1011.2 hPa | 0 mm | 0.89 m/s, 291° | 103 W/m² | - |
| 1777963803 | 10° C | 65% | 1011 hPa | 0 mm | 1.34 m/s, 318° | 106 W/m² | - |
| 1777963203 | 10° C | 64% | 1011.2 hPa | 0 mm | 1.34 m/s, 333° | 98 W/m² | - |
| 1777962603 | 10° C | 63% | 1011.3 hPa | 0 mm | 1.34 m/s, 336° | 114 W/m² | - |
| 1777962003 | 10° C | 62% | 1010.9 hPa | 0 mm | 0.89 m/s, 22° | 64 W/m² | - |
| 1777961403 | 10° C | 65% | 1011 hPa | 0 mm | 0 m/s | 62 W/m² | - |
| 1777960803 | 8.89° C | 70% | 1011 hPa | 0 mm | 0 m/s | 46 W/m² | - |
| 1777960203 | 9.44° C | 65% | 1011 hPa | 0 mm | 0.89 m/s, 49° | 36 W/m² | - |
| 1777959603 | 8.89° C | 69% | 1010.9 hPa | 0 mm | 0.45 m/s, 80° | 24 W/m² | - |
| 1777959003 | 8.89° C | 70% | 1010.7 hPa | 0 mm | 0.45 m/s, 104° | 16 W/m² | - |
| 1777958403 | 10° C | 66% | 1010.7 hPa | 0 mm | 0.45 m/s, 53° | 8 W/m² | - |
| 1777957803 | 10° C | 63% | 1010.7 hPa | 0 mm | 0.89 m/s, 33° | 3 W/m² | - |
| 1777957203 | 10° C | 63% | 1010.8 hPa | 0 mm | 1.34 m/s, 20° | 1 W/m² | - |
| 1777956603 | 10° C | 62% | 1010.7 hPa | 0 mm | 1.79 m/s, 14° | 0 W/m² | - |
| 1777956003 | 10° C | 63% | 1010.6 hPa | 0 mm | 1.79 m/s, 18° | 0 W/m² | - |
| 1777955403 | 10° C | 63% | 1010.6 hPa | 0 mm | 1.79 m/s, 17° | 0 W/m² | - |
| 1777954803 | 10° C | 63% | 1010.8 hPa | 0 mm | 1.79 m/s, 39° | 0 W/m² | - |
| 1777954203 | 10° C | 65% | 1010.8 hPa | 0 mm | 1.34 m/s, 26° | 0 W/m² | - |
* Rain latest hour (hover to see other rain measurements)
** Current wind speed in m/s (hover to see current wind gust speed)